sensor_id;sensor_type;location;lat;lon;timestamp;temperature;humidity
13328;DHT22;6733;51.044;3.746;2024-02-23T00:01:50;6.50;79.00
13328;DHT22;6733;51.044;3.746;2024-02-23T00:04:16;6.60;79.00
13328;DHT22;6733;51.044;3.746;2024-02-23T00:06:45;6.50;78.80
13328;DHT22;6733;51.044;3.746;2024-02-23T00:09:10;6.50;78.80
13328;DHT22;6733;51.044;3.746;2024-02-23T00:11:39;6.60;78.90
13328;DHT22;6733;51.044;3.746;2024-02-23T00:14:08;6.60;79.00
13328;DHT22;6733;51.044;3.746;2024-02-23T00:16:41;6.60;78.70
13328;DHT22;6733;51.044;3.746;2024-02-23T00:19:09;6.60;78.80
13328;DHT22;6733;51.044;3.746;2024-02-23T00:21:38;6.70;78.70
13328;DHT22;6733;51.044;3.746;2024-02-23T00:24:06;6.70;78.30
13328;DHT22;6733;51.044;3.746;2024-02-23T00:26:32;6.70;78.00
13328;DHT22;6733;51.044;3.746;2024-02-23T00:28:58;6.70;77.30
13328;DHT22;6733;51.044;3.746;2024-02-23T00:31:24;6.70;77.00
13328;DHT22;6733;51.044;3.746;2024-02-23T00:33:51;6.60;76.90
13328;DHT22;6733;51.044;3.746;2024-02-23T00:36:17;6.60;77.10
13328;DHT22;6733;51.044;3.746;2024-02-23T00:38:42;6.60;77.20
13328;DHT22;6733;51.044;3.746;2024-02-23T00:41:08;6.60;77.80
13328;DHT22;6733;51.044;3.746;2024-02-23T00:43:38;6.60;78.20
13328;DHT22;6733;51.044;3.746;2024-02-23T00:46:05;6.50;78.10
13328;DHT22;6733;51.044;3.746;2024-02-23T00:48:31;6.50;78.50
13328;DHT22;6733;51.044;3.746;2024-02-23T00:50:57;6.40;78.70
13328;DHT22;6733;51.044;3.746;2024-02-23T00:53:23;6.30;79.20
13328;DHT22;6733;51.044;3.746;2024-02-23T00:55:49;6.40;79.40
13328;DHT22;6733;51.044;3.746;2024-02-23T00:58:15;6.40;79.60
13328;DHT22;6733;51.044;3.746;2024-02-23T01:00:41;6.40;79.70
13328;DHT22;6733;51.044;3.746;2024-02-23T01:03:07;6.40;80.00
13328;DHT22;6733;51.044;3.746;2024-02-23T01:05:34;6.40;80.10
13328;DHT22;6733;51.044;3.746;2024-02-23T01:08:00;6.50;80.40
13328;DHT22;6733;51.044;3.746;2024-02-23T01:10:25;6.50;80.50
13328;DHT22;6733;51.044;3.746;2024-02-23T01:12:52;6.50;80.70
13328;DHT22;6733;51.044;3.746;2024-02-23T01:15:18;6.50;80.80
13328;DHT22;6733;51.044;3.746;2024-02-23T01:17:44;6.50;81.00
13328;DHT22;6733;51.044;3.746;2024-02-23T01:20:11;6.50;80.90
13328;DHT22;6733;51.044;3.746;2024-02-23T01:22:36;6.50;80.90
13328;DHT22;6733;51.044;3.746;2024-02-23T01:25:03;6.60;81.10
13328;DHT22;6733;51.044;3.746;2024-02-23T01:27:29;6.60;80.80
13328;DHT22;6733;51.044;3.746;2024-02-23T01:29:55;6.60;80.40
13328;DHT22;6733;51.044;3.746;2024-02-23T01:32:22;6.70;80.40
13328;DHT22;6733;51.044;3.746;2024-02-23T01:34:48;6.80;79.90
13328;DHT22;6733;51.044;3.746;2024-02-23T01:37:13;6.80;79.50
13328;DHT22;6733;51.044;3.746;2024-02-23T01:39:40;6.60;79.40
13328;DHT22;6733;51.044;3.746;2024-02-23T01:42:06;6.60;79.60
13328;DHT22;6733;51.044;3.746;2024-02-23T01:44:32;6.60;79.60
13328;DHT22;6733;51.044;3.746;2024-02-23T01:46:58;6.70;79.40
13328;DHT22;6733;51.044;3.746;2024-02-23T01:49:24;6.60;79.20
13328;DHT22;6733;51.044;3.746;2024-02-23T01:51:56;6.50;79.20
13328;DHT22;6733;51.044;3.746;2024-02-23T01:54:23;6.50;79.10
13328;DHT22;6733;51.044;3.746;2024-02-23T01:56:49;6.50;79.20
13328;DHT22;6733;51.044;3.746;2024-02-23T01:59:15;6.50;79.20
13328;DHT22;6733;51.044;3.746;2024-02-23T02:01:43;6.50;79.10
13328;DHT22;6733;51.044;3.746;2024-02-23T02:04:10;6.40;79.10
13328;DHT22;6733;51.044;3.746;2024-02-23T02:06:36;6.50;79.20
13328;DHT22;6733;51.044;3.746;2024-02-23T02:09:02;6.50;79.20
13328;DHT22;6733;51.044;3.746;2024-02-23T02:11:28;6.60;79.30
13328;DHT22;6733;51.044;3.746;2024-02-23T02:13:54;6.60;79.00
13328;DHT22;6733;51.044;3.746;2024-02-23T02:16:20;6.60;78.90
13328;DHT22;6733;51.044;3.746;2024-02-23T02:18:46;6.60;79.30
13328;DHT22;6733;51.044;3.746;2024-02-23T02:21:12;6.60;79.30
13328;DHT22;6733;51.044;3.746;2024-02-23T02:23:38;6.70;79.20
13328;DHT22;6733;51.044;3.746;2024-02-23T02:26:04;6.70;79.40
13328;DHT22;6733;51.044;3.746;2024-02-23T02:28:31;6.60;79.30
13328;DHT22;6733;51.044;3.746;2024-02-23T02:30:57;6.70;79.30
13328;DHT22;6733;51.044;3.746;2024-02-23T02:33:23;6.60;79.40
13328;DHT22;6733;51.044;3.746;2024-02-23T02:36:13;6.60;79.50
13328;DHT22;6733;51.044;3.746;2024-02-23T02:39:05;6.60;79.60
13328;DHT22;6733;51.044;3.746;2024-02-23T02:41:57;6.60;79.50
13328;DHT22;6733;51.044;3.746;2024-02-23T02:44:48;6.60;79.70
13328;DHT22;6733;51.044;3.746;2024-02-23T02:47:39;6.70;79.70
13328;DHT22;6733;51.044;3.746;2024-02-23T02:50:31;6.70;79.60
13328;DHT22;6733;51.044;3.746;2024-02-23T02:53:22;6.70;79.30
13328;DHT22;6733;51.044;3.746;2024-02-23T02:56:14;6.70;79.40
13328;DHT22;6733;51.044;3.746;2024-02-23T02:59:05;6.70;79.20
13328;DHT22;6733;51.044;3.746;2024-02-23T03:01:31;6.70;79.10
13328;DHT22;6733;51.044;3.746;2024-02-23T03:03:57;6.60;79.20
13328;DHT22;6733;51.044;3.746;2024-02-23T03:06:23;6.60;79.30
13328;DHT22;6733;51.044;3.746;2024-02-23T03:08:49;6.70;79.50
13328;DHT22;6733;51.044;3.746;2024-02-23T03:11:14;6.80;79.10
13328;DHT22;6733;51.044;3.746;2024-02-23T03:13:40;6.80;79.00
13328;DHT22;6733;51.044;3.746;2024-02-23T03:16:06;6.80;78.80
13328;DHT22;6733;51.044;3.746;2024-02-23T03:18:32;6.80;78.70
13328;DHT22;6733;51.044;3.746;2024-02-23T03:20:58;6.80;79.00
13328;DHT22;6733;51.044;3.746;2024-02-23T03:23:24;6.90;78.70
13328;DHT22;6733;51.044;3.746;2024-02-23T03:25:50;6.80;78.50
13328;DHT22;6733;51.044;3.746;2024-02-23T03:28:16;6.80;78.70
13328;DHT22;6733;51.044;3.746;2024-02-23T03:30:42;6.90;78.50
13328;DHT22;6733;51.044;3.746;2024-02-23T03:33:08;6.80;78.70
13328;DHT22;6733;51.044;3.746;2024-02-23T03:35:34;6.90;78.60
13328;DHT22;6733;51.044;3.746;2024-02-23T03:38:00;7.00;78.50
13328;DHT22;6733;51.044;3.746;2024-02-23T03:40:27;7.10;78.20
13328;DHT22;6733;51.044;3.746;2024-02-23T03:42:53;7.10;78.10
13328;DHT22;6733;51.044;3.746;2024-02-23T03:45:19;7.10;77.90
13328;DHT22;6733;51.044;3.746;2024-02-23T03:47:46;7.10;77.70
13328;DHT22;6733;51.044;3.746;2024-02-23T03:50:12;7.20;77.70
13328;DHT22;6733;51.044;3.746;2024-02-23T03:52:39;7.10;77.70
13328;DHT22;6733;51.044;3.746;2024-02-23T03:55:05;7.10;77.80
13328;DHT22;6733;51.044;3.746;2024-02-23T03:57:32;7.10;77.50
13328;DHT22;6733;51.044;3.746;2024-02-23T03:59:58;7.10;77.60
13328;DHT22;6733;51.044;3.746;2024-02-23T04:02:23;7.10;77.10
13328;DHT22;6733;51.044;3.746;2024-02-23T04:04:49;7.10;76.90
13328;DHT22;6733;51.044;3.746;2024-02-23T04:07:15;7.20;77.00
13328;DHT22;6733;51.044;3.746;2024-02-23T04:09:41;7.20;76.70
13328;DHT22;6733;51.044;3.746;2024-02-23T04:12:07;7.20;76.60
13328;DHT22;6733;51.044;3.746;2024-02-23T04:14:34;7.10;76.40
13328;DHT22;6733;51.044;3.746;2024-02-23T04:17:03;7.10;76.50
13328;DHT22;6733;51.044;3.746;2024-02-23T04:19:29;7.10;76.70
13328;DHT22;6733;51.044;3.746;2024-02-23T04:21:55;7.10;76.40
13328;DHT22;6733;51.044;3.746;2024-02-23T04:24:22;7.00;76.40
13328;DHT22;6733;51.044;3.746;2024-02-23T04:26:48;7.10;76.30
13328;DHT22;6733;51.044;3.746;2024-02-23T04:29:14;7.00;76.40
13328;DHT22;6733;51.044;3.746;2024-02-23T04:31:40;7.00;76.30
13328;DHT22;6733;51.044;3.746;2024-02-23T04:34:06;6.80;76.20
13328;DHT22;6733;51.044;3.746;2024-02-23T04:36:32;6.70;76.40
13328;DHT22;6733;51.044;3.746;2024-02-23T04:38:58;6.70;76.70
13328;DHT22;6733;51.044;3.746;2024-02-23T04:41:25;6.70;76.90
13328;DHT22;6733;51.044;3.746;2024-02-23T04:43:51;6.70;77.00
13328;DHT22;6733;51.044;3.746;2024-02-23T04:46:18;6.70;76.90
13328;DHT22;6733;51.044;3.746;2024-02-23T04:48:44;6.70;76.70
13328;DHT22;6733;51.044;3.746;2024-02-23T04:51:09;6.60;77.00
13328;DHT22;6733;51.044;3.746;2024-02-23T04:53:38;6.60;77.10
13328;DHT22;6733;51.044;3.746;2024-02-23T04:56:05;6.60;77.10
13328;DHT22;6733;51.044;3.746;2024-02-23T04:58:31;6.50;77.10
13328;DHT22;6733;51.044;3.746;2024-02-23T05:00:57;6.50;77.20
13328;DHT22;6733;51.044;3.746;2024-02-23T05:03:22;6.50;77.20
13328;DHT22;6733;51.044;3.746;2024-02-23T05:05:48;6.50;77.40
13328;DHT22;6733;51.044;3.746;2024-02-23T05:08:20;6.50;77.30
13328;DHT22;6733;51.044;3.746;2024-02-23T05:10:47;6.50;77.40
13328;DHT22;6733;51.044;3.746;2024-02-23T05:13:13;6.50;77.70
13328;DHT22;6733;51.044;3.746;2024-02-23T05:15:39;6.50;77.20
13328;DHT22;6733;51.044;3.746;2024-02-23T05:18:05;6.50;77.10
13328;DHT22;6733;51.044;3.746;2024-02-23T05:20:32;6.50;76.90
13328;DHT22;6733;51.044;3.746;2024-02-23T05:22:58;6.50;77.20
13328;DHT22;6733;51.044;3.746;2024-02-23T05:25:24;6.50;76.80
13328;DHT22;6733;51.044;3.746;2024-02-23T05:27:54;6.60;76.80
13328;DHT22;6733;51.044;3.746;2024-02-23T05:30:20;6.40;76.50
13328;DHT22;6733;51.044;3.746;2024-02-23T05:32:47;6.40;76.80
13328;DHT22;6733;51.044;3.746;2024-02-23T05:35:13;6.40;77.00
13328;DHT22;6733;51.044;3.746;2024-02-23T05:37:41;6.40;77.20
13328;DHT22;6733;51.044;3.746;2024-02-23T05:40:07;6.40;77.30
13328;DHT22;6733;51.044;3.746;2024-02-23T05:42:39;6.40;77.20
13328;DHT22;6733;51.044;3.746;2024-02-23T05:45:07;6.50;77.20
13328;DHT22;6733;51.044;3.746;2024-02-23T05:47:36;6.50;76.80
13328;DHT22;6733;51.044;3.746;2024-02-23T05:50:03;6.50;76.60
13328;DHT22;6733;51.044;3.746;2024-02-23T05:52:33;6.50;76.80
13328;DHT22;6733;51.044;3.746;2024-02-23T05:54:59;6.50;76.70
13328;DHT22;6733;51.044;3.746;2024-02-23T05:57:26;6.60;76.70
13328;DHT22;6733;51.044;3.746;2024-02-23T05:59:53;6.60;76.30
13328;DHT22;6733;51.044;3.746;2024-02-23T06:02:18;6.70;76.40
13328;DHT22;6733;51.044;3.746;2024-02-23T06:04:44;6.70;76.10
13328;DHT22;6733;51.044;3.746;2024-02-23T06:07:11;6.70;76.00
13328;DHT22;6733;51.044;3.746;2024-02-23T06:09:37;6.70;76.20
13328;DHT22;6733;51.044;3.746;2024-02-23T06:12:04;6.70;76.00
13328;DHT22;6733;51.044;3.746;2024-02-23T06:14:30;6.70;76.20
13328;DHT22;6733;51.044;3.746;2024-02-23T06:16:56;6.70;76.40
13328;DHT22;6733;51.044;3.746;2024-02-23T06:19:22;6.70;76.30
13328;DHT22;6733;51.044;3.746;2024-02-23T06:21:48;6.70;76.40
13328;DHT22;6733;51.044;3.746;2024-02-23T06:24:15;6.70;76.30
13328;DHT22;6733;51.044;3.746;2024-02-23T06:26:42;6.60;76.30
13328;DHT22;6733;51.044;3.746;2024-02-23T06:29:07;6.70;76.60
13328;DHT22;6733;51.044;3.746;2024-02-23T06:31:38;6.60;76.40
13328;DHT22;6733;51.044;3.746;2024-02-23T06:34:05;6.70;76.40
13328;DHT22;6733;51.044;3.746;2024-02-23T06:36:31;6.80;76.40
13328;DHT22;6733;51.044;3.746;2024-02-23T06:38:57;6.70;76.70
13328;DHT22;6733;51.044;3.746;2024-02-23T06:41:23;6.80;76.60
13328;DHT22;6733;51.044;3.746;2024-02-23T06:43:48;6.90;76.40
13328;DHT22;6733;51.044;3.746;2024-02-23T06:46:14;6.90;75.90
13328;DHT22;6733;51.044;3.746;2024-02-23T06:48:40;6.90;76.00
13328;DHT22;6733;51.044;3.746;2024-02-23T06:51:06;6.90;75.90
13328;DHT22;6733;51.044;3.746;2024-02-23T06:53:35;6.90;75.90
13328;DHT22;6733;51.044;3.746;2024-02-23T06:56:01;7.00;76.20
13328;DHT22;6733;51.044;3.746;2024-02-23T06:58:28;7.00;75.90
13328;DHT22;6733;51.044;3.746;2024-02-23T07:00:54;7.00;75.70
13328;DHT22;6733;51.044;3.746;2024-02-23T07:03:20;7.10;76.00
13328;DHT22;6733;51.044;3.746;2024-02-23T07:05:46;7.10;75.50
13328;DHT22;6733;51.044;3.746;2024-02-23T07:08:13;7.20;75.60
13328;DHT22;6733;51.044;3.746;2024-02-23T07:10:38;7.20;75.10
13328;DHT22;6733;51.044;3.746;2024-02-23T07:13:08;7.10;75.10
13328;DHT22;6733;51.044;3.746;2024-02-23T07:15:34;7.10;75.40
13328;DHT22;6733;51.044;3.746;2024-02-23T07:18:02;7.10;75.20
13328;DHT22;6733;51.044;3.746;2024-02-23T07:20:28;7.20;75.30
13328;DHT22;6733;51.044;3.746;2024-02-23T07:22:54;7.20;75.30
13328;DHT22;6733;51.044;3.746;2024-02-23T07:25:20;7.20;75.10
13328;DHT22;6733;51.044;3.746;2024-02-23T07:27:49;7.20;75.70
13328;DHT22;6733;51.044;3.746;2024-02-23T07:30:15;7.20;76.50
13328;DHT22;6733;51.044;3.746;2024-02-23T07:32:42;7.20;76.70
13328;DHT22;6733;51.044;3.746;2024-02-23T07:35:09;7.20;76.90
13328;DHT22;6733;51.044;3.746;2024-02-23T07:37:36;7.20;77.10
13328;DHT22;6733;51.044;3.746;2024-02-23T07:40:03;7.10;77.30
13328;DHT22;6733;51.044;3.746;2024-02-23T07:42:31;7.10;77.20
13328;DHT22;6733;51.044;3.746;2024-02-23T07:44:57;7.10;77.70
13328;DHT22;6733;51.044;3.746;2024-02-23T07:47:24;7.10;77.70
13328;DHT22;6733;51.044;3.746;2024-02-23T07:49:52;7.10;77.60
13328;DHT22;6733;51.044;3.746;2024-02-23T07:52:19;7.10;78.00
13328;DHT22;6733;51.044;3.746;2024-02-23T07:54:45;7.20;77.80
13328;DHT22;6733;51.044;3.746;2024-02-23T07:57:11;7.20;77.20
13328;DHT22;6733;51.044;3.746;2024-02-23T07:59:39;7.20;77.60
13328;DHT22;6733;51.044;3.746;2024-02-23T08:02:05;7.20;77.50
13328;DHT22;6733;51.044;3.746;2024-02-23T08:04:31;7.30;77.30
13328;DHT22;6733;51.044;3.746;2024-02-23T08:06:57;7.20;77.30
13328;DHT22;6733;51.044;3.746;2024-02-23T08:09:24;7.30;77.50
13328;DHT22;6733;51.044;3.746;2024-02-23T08:11:50;7.40;76.90
13328;DHT22;6733;51.044;3.746;2024-02-23T08:14:17;7.40;76.60
13328;DHT22;6733;51.044;3.746;2024-02-23T08:16:43;7.40;76.40
13328;DHT22;6733;51.044;3.746;2024-02-23T08:19:09;7.40;76.50
13328;DHT22;6733;51.044;3.746;2024-02-23T08:21:35;7.50;76.50
13328;DHT22;6733;51.044;3.746;2024-02-23T08:24:02;7.40;76.50
13328;DHT22;6733;51.044;3.746;2024-02-23T08:26:28;7.50;76.20
13328;DHT22;6733;51.044;3.746;2024-02-23T08:28:54;7.60;76.10
13328;DHT22;6733;51.044;3.746;2024-02-23T08:31:20;7.70;75.50
13328;DHT22;6733;51.044;3.746;2024-02-23T08:33:47;7.70;75.00
13328;DHT22;6733;51.044;3.746;2024-02-23T08:36:13;7.70;74.80
13328;DHT22;6733;51.044;3.746;2024-02-23T08:38:39;7.70;75.10
13328;DHT22;6733;51.044;3.746;2024-02-23T08:41:05;7.70;75.60
13328;DHT22;6733;51.044;3.746;2024-02-23T08:43:31;7.80;75.40
13328;DHT22;6733;51.044;3.746;2024-02-23T08:45:57;7.90;74.90
13328;DHT22;6733;51.044;3.746;2024-02-23T08:48:23;7.90;74.60
13328;DHT22;6733;51.044;3.746;2024-02-23T08:50:49;7.90;75.10
13328;DHT22;6733;51.044;3.746;2024-02-23T08:53:14;7.90;75.00
13328;DHT22;6733;51.044;3.746;2024-02-23T08:55:41;7.90;75.10
13328;DHT22;6733;51.044;3.746;2024-02-23T08:58:07;7.90;75.00
13328;DHT22;6733;51.044;3.746;2024-02-23T09:00:33;8.00;75.10
13328;DHT22;6733;51.044;3.746;2024-02-23T09:02:59;8.10;74.40
13328;DHT22;6733;51.044;3.746;2024-02-23T09:05:25;8.00;74.60
13328;DHT22;6733;51.044;3.746;2024-02-23T09:07:52;8.10;74.60
13328;DHT22;6733;51.044;3.746;2024-02-23T09:10:19;8.00;74.80
13328;DHT22;6733;51.044;3.746;2024-02-23T09:12:45;8.00;75.00
13328;DHT22;6733;51.044;3.746;2024-02-23T09:15:11;7.90;75.20
13328;DHT22;6733;51.044;3.746;2024-02-23T09:17:39;7.90;74.90
13328;DHT22;6733;51.044;3.746;2024-02-23T09:20:06;7.80;75.30
13328;DHT22;6733;51.044;3.746;2024-02-23T09:22:33;7.90;75.30
13328;DHT22;6733;51.044;3.746;2024-02-23T09:24:59;7.90;75.00
13328;DHT22;6733;51.044;3.746;2024-02-23T09:27:25;8.00;75.10
13328;DHT22;6733;51.044;3.746;2024-02-23T09:29:51;8.00;75.00
13328;DHT22;6733;51.044;3.746;2024-02-23T09:32:17;8.10;74.60
13328;DHT22;6733;51.044;3.746;2024-02-23T09:34:44;8.10;74.20
13328;DHT22;6733;51.044;3.746;2024-02-23T09:37:10;8.10;74.50
13328;DHT22;6733;51.044;3.746;2024-02-23T09:39:36;8.10;74.10
13328;DHT22;6733;51.044;3.746;2024-02-23T09:42:02;8.10;74.50
13328;DHT22;6733;51.044;3.746;2024-02-23T09:44:33;8.20;74.30
13328;DHT22;6733;51.044;3.746;2024-02-23T09:47:01;8.20;73.90
13328;DHT22;6733;51.044;3.746;2024-02-23T09:49:38;8.20;74.70
13328;DHT22;6733;51.044;3.746;2024-02-23T09:52:07;8.20;74.80
13328;DHT22;6733;51.044;3.746;2024-02-23T09:54:34;8.20;75.20
13328;DHT22;6733;51.044;3.746;2024-02-23T09:57:01;8.40;75.00
13328;DHT22;6733;51.044;3.746;2024-02-23T09:59:29;8.40;74.90
13328;DHT22;6733;51.044;3.746;2024-02-23T10:01:57;8.40;74.70
13328;DHT22;6733;51.044;3.746;2024-02-23T10:04:24;8.50;74.50
13328;DHT22;6733;51.044;3.746;2024-02-23T10:06:51;8.50;74.30
13328;DHT22;6733;51.044;3.746;2024-02-23T10:09:17;8.50;73.90
13328;DHT22;6733;51.044;3.746;2024-02-23T10:11:43;8.50;73.50
13328;DHT22;6733;51.044;3.746;2024-02-23T10:14:09;8.70;73.40
13328;DHT22;6733;51.044;3.746;2024-02-23T10:16:35;8.80;73.50
13328;DHT22;6733;51.044;3.746;2024-02-23T10:19:01;9.00;72.40
13328;DHT22;6733;51.044;3.746;2024-02-23T10:21:27;9.00;72.20
13328;DHT22;6733;51.044;3.746;2024-02-23T10:23:52;9.10;72.10
13328;DHT22;6733;51.044;3.746;2024-02-23T10:26:18;9.10;71.30
13328;DHT22;6733;51.044;3.746;2024-02-23T10:28:46;9.10;71.80
13328;DHT22;6733;51.044;3.746;2024-02-23T10:31:13;9.30;71.40
13328;DHT22;6733;51.044;3.746;2024-02-23T10:33:39;9.50;71.10
13328;DHT22;6733;51.044;3.746;2024-02-23T10:36:07;9.70;70.20
13328;DHT22;6733;51.044;3.746;2024-02-23T10:38:38;9.70;70.10
13328;DHT22;6733;51.044;3.746;2024-02-23T10:41:07;9.80;69.90
13328;DHT22;6733;51.044;3.746;2024-02-23T10:43:47;9.80;69.20
13328;DHT22;6733;51.044;3.746;2024-02-23T10:46:14;9.90;69.20
13328;DHT22;6733;51.044;3.746;2024-02-23T10:48:41;9.90;68.90
13328;DHT22;6733;51.044;3.746;2024-02-23T10:51:10;9.90;68.90
13328;DHT22;6733;51.044;3.746;2024-02-23T10:53:39;10.00;68.50
13328;DHT22;6733;51.044;3.746;2024-02-23T10:56:07;10.00;68.60
13328;DHT22;6733;51.044;3.746;2024-02-23T10:58:33;10.00;68.50
13328;DHT22;6733;51.044;3.746;2024-02-23T11:01:01;10.00;68.40
13328;DHT22;6733;51.044;3.746;2024-02-23T11:03:30;10.00;68.40
13328;DHT22;6733;51.044;3.746;2024-02-23T11:05:57;9.90;68.70
13328;DHT22;6733;51.044;3.746;2024-02-23T11:08:23;9.80;68.70
13328;DHT22;6733;51.044;3.746;2024-02-23T11:10:49;9.70;69.10
13328;DHT22;6733;51.044;3.746;2024-02-23T11:13:18;9.80;69.30
13328;DHT22;6733;51.044;3.746;2024-02-23T11:15:44;9.80;69.30
13328;DHT22;6733;51.044;3.746;2024-02-23T11:18:23;9.70;69.70
13328;DHT22;6733;51.044;3.746;2024-02-23T11:20:56;9.70;69.60
13328;DHT22;6733;51.044;3.746;2024-02-23T11:23:24;9.50;69.80
13328;DHT22;6733;51.044;3.746;2024-02-23T11:28:30;9.50;70.50
13328;DHT22;6733;51.044;3.746;2024-02-23T11:30:57;9.50;70.40
13328;DHT22;6733;51.044;3.746;2024-02-23T11:33:34;9.70;70.40
13328;DHT22;6733;51.044;3.746;2024-02-23T11:36:08;9.80;70.30
13328;DHT22;6733;51.044;3.746;2024-02-23T11:38:34;9.70;71.00
13328;DHT22;6733;51.044;3.746;2024-02-23T11:41:02;9.60;71.90
13328;DHT22;6733;51.044;3.746;2024-02-23T11:43:28;9.70;72.20
13328;DHT22;6733;51.044;3.746;2024-02-23T11:45:54;9.90;72.40
13328;DHT22;6733;51.044;3.746;2024-02-23T11:48:20;10.00;72.50
13328;DHT22;6733;51.044;3.746;2024-02-23T11:50:50;9.90;72.40
13328;DHT22;6733;51.044;3.746;2024-02-23T11:53:16;9.90;72.30
13328;DHT22;6733;51.044;3.746;2024-02-23T11:55:43;9.90;72.90
13328;DHT22;6733;51.044;3.746;2024-02-23T11:58:09;10.10;72.70
13328;DHT22;6733;51.044;3.746;2024-02-23T12:00:35;10.20;72.10
13328;DHT22;6733;51.044;3.746;2024-02-23T12:03:01;10.30;71.30
13328;DHT22;6733;51.044;3.746;2024-02-23T12:05:27;10.40;70.20
13328;DHT22;6733;51.044;3.746;2024-02-23T12:07:54;10.40;70.20
13328;DHT22;6733;51.044;3.746;2024-02-23T12:10:20;10.50;69.70
13328;DHT22;6733;51.044;3.746;2024-02-23T12:12:46;10.50;69.70
13328;DHT22;6733;51.044;3.746;2024-02-23T12:15:15;10.60;69.70
13328;DHT22;6733;51.044;3.746;2024-02-23T12:17:48;10.70;69.70
13328;DHT22;6733;51.044;3.746;2024-02-23T12:20:17;10.80;69.60
13328;DHT22;6733;51.044;3.746;2024-02-23T12:22:43;10.90;69.60
13328;DHT22;6733;51.044;3.746;2024-02-23T12:25:09;11.10;69.20
13328;DHT22;6733;51.044;3.746;2024-02-23T12:27:40;11.20;68.30
13328;DHT22;6733;51.044;3.746;2024-02-23T12:30:12;11.30;67.60
13328;DHT22;6733;51.044;3.746;2024-02-23T12:32:38;11.50;66.90
13328;DHT22;6733;51.044;3.746;2024-02-23T12:35:05;11.70;65.20
13328;DHT22;6733;51.044;3.746;2024-02-23T12:37:35;11.80;65.10
13328;DHT22;6733;51.044;3.746;2024-02-23T12:40:07;11.90;63.80
13328;DHT22;6733;51.044;3.746;2024-02-23T12:42:34;11.90;63.20
13328;DHT22;6733;51.044;3.746;2024-02-23T12:45:03;11.90;63.70
13328;DHT22;6733;51.044;3.746;2024-02-23T12:47:29;12.10;63.00
13328;DHT22;6733;51.044;3.746;2024-02-23T12:49:55;12.10;62.70
13328;DHT22;6733;51.044;3.746;2024-02-23T12:52:21;12.00;62.60
13328;DHT22;6733;51.044;3.746;2024-02-23T12:54:46;12.00;62.80
13328;DHT22;6733;51.044;3.746;2024-02-23T12:57:15;11.90;63.10
13328;DHT22;6733;51.044;3.746;2024-02-23T12:59:41;11.60;63.30
13328;DHT22;6733;51.044;3.746;2024-02-23T13:02:08;11.70;64.10
13328;DHT22;6733;51.044;3.746;2024-02-23T13:04:34;11.50;63.90
13328;DHT22;6733;51.044;3.746;2024-02-23T13:07:01;11.60;63.70
13328;DHT22;6733;51.044;3.746;2024-02-23T13:09:27;11.60;63.90
13328;DHT22;6733;51.044;3.746;2024-02-23T13:11:53;11.60;63.90
13328;DHT22;6733;51.044;3.746;2024-02-23T13:14:24;11.40;64.40
13328;DHT22;6733;51.044;3.746;2024-02-23T13:16:49;11.30;65.30
13328;DHT22;6733;51.044;3.746;2024-02-23T13:19:15;11.30;66.00
13328;DHT22;6733;51.044;3.746;2024-02-23T13:21:41;11.20;66.80
13328;DHT22;6733;51.044;3.746;2024-02-23T13:24:07;11.20;66.80
13328;DHT22;6733;51.044;3.746;2024-02-23T13:26:33;11.30;66.50
13328;DHT22;6733;51.044;3.746;2024-02-23T13:28:59;11.30;67.00
13328;DHT22;6733;51.044;3.746;2024-02-23T13:31:28;11.40;67.20
13328;DHT22;6733;51.044;3.746;2024-02-23T13:33:54;11.50;67.10
13328;DHT22;6733;51.044;3.746;2024-02-23T13:36:21;11.60;65.70
13328;DHT22;6733;51.044;3.746;2024-02-23T13:38:47;11.40;65.30
13328;DHT22;6733;51.044;3.746;2024-02-23T13:41:13;11.30;65.30
13328;DHT22;6733;51.044;3.746;2024-02-23T13:43:40;11.30;65.40
13328;DHT22;6733;51.044;3.746;2024-02-23T13:46:06;11.30;65.20
13328;DHT22;6733;51.044;3.746;2024-02-23T13:48:32;11.40;64.90
13328;DHT22;6733;51.044;3.746;2024-02-23T13:50:59;11.50;64.60
13328;DHT22;6733;51.044;3.746;2024-02-23T13:53:30;11.60;63.10
13328;DHT22;6733;51.044;3.746;2024-02-23T13:55:57;11.60;63.20
13328;DHT22;6733;51.044;3.746;2024-02-23T13:58:23;11.70;62.80
13328;DHT22;6733;51.044;3.746;2024-02-23T14:00:49;11.80;62.00
13328;DHT22;6733;51.044;3.746;2024-02-23T14:03:18;11.80;61.60
13328;DHT22;6733;51.044;3.746;2024-02-23T14:05:45;12.00;61.40
13328;DHT22;6733;51.044;3.746;2024-02-23T14:08:12;12.10;60.60
13328;DHT22;6733;51.044;3.746;2024-02-23T14:10:38;12.10;59.90
13328;DHT22;6733;51.044;3.746;2024-02-23T14:13:06;11.90;59.80
13328;DHT22;6733;51.044;3.746;2024-02-23T14:15:32;11.80;60.40
13328;DHT22;6733;51.044;3.746;2024-02-23T14:17:58;11.80;61.10
13328;DHT22;6733;51.044;3.746;2024-02-23T14:20:24;11.70;62.10
13328;DHT22;6733;51.044;3.746;2024-02-23T14:22:50;11.70;62.60
13328;DHT22;6733;51.044;3.746;2024-02-23T14:25:18;11.70;63.00
13328;DHT22;6733;51.044;3.746;2024-02-23T14:27:45;11.60;63.50
13328;DHT22;6733;51.044;3.746;2024-02-23T14:30:11;11.30;64.20
13328;DHT22;6733;51.044;3.746;2024-02-23T14:32:37;10.90;66.70
13328;DHT22;6733;51.044;3.746;2024-02-23T14:35:03;10.70;68.40
13328;DHT22;6733;51.044;3.746;2024-02-23T14:37:30;10.40;69.30
13328;DHT22;6733;51.044;3.746;2024-02-23T14:39:55;10.10;71.40
13328;DHT22;6733;51.044;3.746;2024-02-23T14:42:22;9.80;74.10
13328;DHT22;6733;51.044;3.746;2024-02-23T14:44:48;9.70;75.70
13328;DHT22;6733;51.044;3.746;2024-02-23T14:47:16;9.60;74.70
13328;DHT22;6733;51.044;3.746;2024-02-23T14:49:42;9.60;74.30
13328;DHT22;6733;51.044;3.746;2024-02-23T14:52:08;10.10;79.10
13328;DHT22;6733;51.044;3.746;2024-02-23T14:54:34;10.80;76.50
13328;DHT22;6733;51.044;3.746;2024-02-23T14:57:01;11.90;72.60
13328;DHT22;6733;51.044;3.746;2024-02-23T14:59:27;12.80;67.50
13328;DHT22;6733;51.044;3.746;2024-02-23T15:01:54;13.20;64.10
13328;DHT22;6733;51.044;3.746;2024-02-23T15:04:20;13.80;61.90
13328;DHT22;6733;51.044;3.746;2024-02-23T15:06:46;14.20;60.80
13328;DHT22;6733;51.044;3.746;2024-02-23T15:09:12;14.60;59.00
13328;DHT22;6733;51.044;3.746;2024-02-23T15:11:38;15.10;57.70
13328;DHT22;6733;51.044;3.746;2024-02-23T15:14:05;15.50;56.60
13328;DHT22;6733;51.044;3.746;2024-02-23T15:16:31;15.80;55.50
13328;DHT22;6733;51.044;3.746;2024-02-23T15:18:57;16.20;54.40
13328;DHT22;6733;51.044;3.746;2024-02-23T15:21:23;16.50;53.20
13328;DHT22;6733;51.044;3.746;2024-02-23T15:23:49;16.80;52.70
13328;DHT22;6733;51.044;3.746;2024-02-23T15:26:15;17.20;52.30
13328;DHT22;6733;51.044;3.746;2024-02-23T15:28:41;17.40;50.70
13328;DHT22;6733;51.044;3.746;2024-02-23T15:31:08;17.60;50.40
13328;DHT22;6733;51.044;3.746;2024-02-23T15:33:34;17.80;50.50
13328;DHT22;6733;51.044;3.746;2024-02-23T15:36:02;18.10;49.70
13328;DHT22;6733;51.044;3.746;2024-02-23T15:38:30;18.30;49.00
13328;DHT22;6733;51.044;3.746;2024-02-23T15:40:56;18.40;48.60
13328;DHT22;6733;51.044;3.746;2024-02-23T15:43:23;18.20;48.40
13328;DHT22;6733;51.044;3.746;2024-02-23T15:45:49;17.60;49.40
13328;DHT22;6733;51.044;3.746;2024-02-23T15:48:15;16.90;50.90
13328;DHT22;6733;51.044;3.746;2024-02-23T15:50:41;16.60;51.60
13328;DHT22;6733;51.044;3.746;2024-02-23T15:53:07;16.20;52.70
13328;DHT22;6733;51.044;3.746;2024-02-23T15:55:33;15.40;55.10
13328;DHT22;6733;51.044;3.746;2024-02-23T15:57:59;14.90;57.80
13328;DHT22;6733;51.044;3.746;2024-02-23T16:00:25;14.40;58.70